| time (UTC) | temp C | wind direction | speed KPH | gust KPH | rain 1hr cm | rain 24hr cm | rain mn cm | humidity % | barometer mb |
| 20260510101801 | 18 | 299 | 8.0 | 14.5 | 0.00 | 0.00 | 0.00 | 49 | 1008.0 |
| 20260510101301 | 18 | 332 | 6.4 | 12.9 | 0.00 | 0.00 | 0.00 | 51 | 1008.0 |
| 20260510100802 | 18 | 329 | 8.0 | 14.5 | 0.00 | 0.00 | 0.00 | 51 | 1008.1 |
| 20260510100302 | 18 | 321 | 9.7 | 14.5 | 0.00 | 0.00 | 0.00 | 52 | 1008.1 |
| 20260510095809 | 18 | 238 | 9.7 | 17.7 | 0.00 | 0.00 | 0.00 | 52 | 1008.0 |
| 20260510095305 | 18 | 305 | 9.7 | 17.7 | 0.00 | 0.00 | 0.00 | 53 | 1008.0 |
| 20260510094801 | 18 | 272 | 6.4 | 16.1 | 0.00 | 0.00 | 0.00 | 53 | 1008.1 |
| 20260510093801 | 18 | 316 | 6.4 | 11.3 | 0.00 | 0.00 | 0.00 | 54 | 1008.1 |
| 20260510093302 | 17 | 283 | 6.4 | 11.3 | 0.00 | 0.00 | 0.00 | 55 | 1008.1 |
| 20260510092800 | 17 | 252 | 6.4 | 12.9 | 0.00 | 0.00 | 0.00 | 55 | 1008.1 |
| 20260510092306 | 17 | 316 | 8.0 | 12.9 | 0.00 | 0.00 | 0.00 | 54 | 1008.2 |
| 20260510090802 | 17 | 305 | 9.7 | 17.7 | 0.00 | 0.00 | 0.00 | 55 | 1008.2 |
| 20260510090302 | 17 | 355 | 8.0 | 14.5 | 0.00 | 0.00 | 0.00 | 55 | 1008.0 |
| 20260510085802 | 17 | 320 | 6.4 | 12.9 | 0.00 | 0.00 | 0.00 | 55 | 1008.1 |
| 20260510084802 | 17 | 293 | 6.4 | 11.3 | 0.00 | 0.00 | 0.00 | 57 | 1008.1 |
| 20260510084300 | 17 | 305 | 8.0 | 14.5 | 0.00 | 0.00 | 0.00 | 58 | 1008.2 |
| 20260510083801 | 17 | 309 | 8.0 | 14.5 | 0.00 | 0.00 | 0.00 | 58 | 1008.2 |
| 20260510083303 | 16 | 311 | 4.8 | 12.9 | 0.00 | 0.00 | 0.00 | 59 | 1008.2 |
| 20260510082801 | 16 | 328 | 4.8 | 11.3 | 0.00 | 0.00 | 0.00 | 59 | 1008.2 |
| 20260510082301 | 16 | 8 | 6.4 | 14.5 | 0.00 | 0.00 | 0.00 | 60 | 1008.1 |
| 20260510081801 | 16 | 322 | 6.4 | 14.5 | 0.00 | 0.00 | 0.00 | 62 | 1008.1 |
| 20260510081258 | 16 | 326 | 3.2 | 11.3 | 0.00 | 0.00 | 0.00 | 63 | 1008.1 |
| 20260510080757 | 16 | 39 | 4.8 | 8.0 | 0.00 | 0.00 | 0.00 | 62 | 1008.1 |
| 20260510080253 | 15 | 265 | 4.8 | 8.0 | 0.00 | 0.00 | 0.00 | 62 | 1008.1 |
| 20260510075753 | 15 | 234 | 4.8 | 6.4 | 0.00 | 0.00 | 0.00 | 63 | 1008.1 |
| 20260510075253 | 15 | 264 | 4.8 | 8.0 | 0.00 | 0.00 | 0.00 | 63 | 1008.1 |
| 20260510074752 | 15 | 261 | 6.4 | 8.0 | 0.00 | 0.00 | 0.00 | 63 | 1008.1 |
| 20260510074236 | 15 | 252 | 6.4 | 9.7 | 0.00 | 0.00 | 0.00 | 64 | 1008.0 |
| 20260510073731 | 15 | 277 | 6.4 | 9.7 | 0.00 | 0.00 | 0.00 | 64 | 1008.0 |
| 20260510073233 | 15 | 279 | 4.8 | 9.7 | 0.00 | 0.00 | 0.00 | 64 | 1008.0 |
| 20260510072730 | 15 | 263 | 4.8 | 6.4 | 0.00 | 0.00 | 0.00 | 67 | 1008.0 |
| 20260510072230 | 15 | 317 | 4.8 | 8.0 | 0.00 | 0.00 | 0.00 | 66 | 1008.0 |
| 20260510071731 | 15 | 303 | 4.8 | 11.3 | 0.00 | 0.00 | 0.00 | 67 | 1008.0 |
| 20260510071231 | 15 | 294 | 4.8 | 11.3 | 0.00 | 0.00 | 0.00 | 68 | 1008.0 |
| 20260510070729 | 15 | 302 | 3.2 | 8.0 | 0.00 | 0.00 | 0.00 | 68 | 1007.9 |
| 20260510070229 | 15 | 267 | 0.0 | 4.8 | 0.00 | 0.00 | 0.00 | 68 | 1007.9 |
| 20260510065729 | 15 | 195 | 0.0 | 1.6 | 0.00 | 0.00 | 0.00 | 64 | 1007.9 |
| 20260510065246 | 15 | 195 | 1.6 | 1.6 | 0.00 | 0.00 | 0.00 | 63 | 1007.9 |
| 20260510064229 | 15 | 195 | 1.6 | 4.8 | 0.00 | 0.00 | 0.00 | 65 | 1007.9 |
| 20260510063729 | 15 | 195 | 1.6 | 4.8 | 0.00 | 0.00 | 0.00 | 65 | 1007.9 |
| 20260510063245 | 15 | 241 | 1.6 | 3.2 | 0.00 | 0.00 | 0.00 | 65 | 1007.8 |
| 20260510062730 | 15 | 241 | 1.6 | 3.2 | 0.00 | 0.00 | 0.00 | 66 | 1007.8 |
| 20260510062231 | 14 | 191 | 1.6 | 6.4 | 0.00 | 0.00 | 0.00 | 67 | 1007.6 |
| 20260510061730 | 14 | 184 | 3.2 | 8.0 | 0.00 | 0.00 | 0.00 | 67 | 1007.6 |
| 20260510060231 | 14 | 196 | 3.2 | 6.4 | 0.00 | 0.00 | 0.00 | 68 | 1007.8 |
| 20260510055731 | 14 | 192 | 3.2 | 6.4 | 0.00 | 0.00 | 0.00 | 70 | 1007.6 |
| 20260510055231 | 14 | 192 | 3.2 | 6.4 | 0.00 | 0.00 | 0.00 | 71 | 1007.5 |
| 20260510054730 | 14 | 167 | 4.8 | 9.7 | 0.00 | 0.00 | 0.00 | 71 | 1007.5 |
| 20260510053730 | 13 | 153 | 4.8 | 8.0 | 0.00 | 0.00 | 0.00 | 73 | 1007.4 |
| 20260510052745 | 13 | 148 | 3.2 | 8.0 | 0.00 | 0.00 | 0.00 | 75 | 1007.4 |
| 20260510051729 | 12 | 145 | 1.6 | 3.2 | 0.00 | 0.00 | 0.00 | 80 | 1007.2 |
| 20260510051230 | 12 | 188 | 3.2 | 6.4 | 0.00 | 0.00 | 0.00 | 80 | 1007.0 |
| 20260510050730 | 12 | 209 | 3.2 | 6.4 | 0.00 | 0.00 | 0.00 | 80 | 1007.0 |
| 20260510050245 | 11 | 228 | 1.6 | 4.8 | 0.00 | 0.00 | 0.00 | 81 | 1006.9 |
| 20260510045728 | 11 | 210 | 1.6 | 4.8 | 0.00 | 0.00 | 0.00 | 82 | 1006.9 |
| 20260510044728 | 11 | 174 | 1.6 | 4.8 | 0.00 | 0.00 | 0.00 | 82 | 1007.0 |
| 20260510044228 | 11 | 189 | 3.2 | 4.8 | 0.00 | 0.00 | 0.00 | 82 | 1007.1 |
| 20260510043231 | 11 | 175 | 4.8 | 8.0 | 0.00 | 0.00 | 0.00 | 82 | 1007.0 |
| 20260510042730 | 11 | 173 | 4.8 | 8.0 | 0.00 | 0.00 | 0.00 | 83 | 1007.1 |
| 20260510042230 | 11 | 161 | 3.2 | 8.0 | 0.00 | 0.00 | 0.00 | 82 | 1007.1 |
| 20260510041730 | 11 | 171 | 1.6 | 4.8 | 0.00 | 0.00 | 0.00 | 81 | 1007.1 |
| 20260510041232 | 11 | 201 | 1.6 | 4.8 | 0.00 | 0.00 | 0.00 | 81 | 1007.1 |
| 20260510040231 | 11 | 265 | 1.6 | 3.2 | 0.00 | 0.00 | 0.00 | 80 | 1007.2 |
| 20260510035731 | 11 | 265 | 1.6 | 3.2 | 0.00 | 0.00 | 0.00 | 80 | 1007.3 |
| 20260510035229 | 11 | 274 | 3.2 | 6.4 | 0.00 | 0.00 | 0.00 | 79 | 1007.3 |
| 20260510034732 | 11 | 286 | 4.8 | 9.7 | 0.00 | 0.00 | 0.00 | 79 | 1007.3 |
| 20260510034231 | 11 | 249 | 4.8 | 9.7 | 0.00 | 0.00 | 0.00 | 78 | 1007.3 |
| 20260510033730 | 12 | 232 | 3.2 | 6.4 | 0.00 | 0.00 | 0.00 | 76 | 1007.4 |
| 20260510033229 | 12 | 247 | 3.2 | 6.4 | 0.00 | 0.00 | 0.00 | 75 | 1007.4 |
| 20260510032729 | 12 | 230 | 3.2 | 6.4 | 0.00 | 0.00 | 0.00 | 74 | 1007.4 |
| 20260510032228 | 12 | 245 | 3.2 | 6.4 | 0.00 | 0.00 | 0.00 | 73 | 1007.4 |
| 20260510031730 | 13 | 165 | 4.8 | 8.0 | 0.00 | 0.00 | 0.00 | 72 | 1007.5 |
| 20260510031233 | 13 | 178 | 8.0 | 22.5 | 0.00 | 0.00 | 0.00 | 71 | 1007.8 |
| 20260510030743 | 13 | 196 | 16.1 | 30.6 | 0.00 | 0.00 | 0.00 | 70 | 1007.6 |
| 20260510030232 | 14 | 105 | 17.7 | 30.6 | 0.00 | 0.00 | 0.00 | 69 | 1007.8 |
| 20260510025729 | 14 | 118 | 17.7 | 25.7 | 0.00 | 0.00 | 0.00 | 67 | 1007.9 |
| 20260510025229 | 14 | 107 | 19.3 | 25.7 | 0.00 | 0.00 | 0.00 | 67 | 1007.8 |
| 20260510024729 | 14 | 103 | 20.9 | 24.1 | 0.00 | 0.00 | 0.00 | 67 | 1007.8 |
| 20260510024230 | 14 | 105 | 20.9 | 25.7 | 0.00 | 0.00 | 0.00 | 69 | 1007.8 |
| 20260510023729 | 14 | 97 | 20.9 | 25.7 | 0.00 | 0.00 | 0.00 | 69 | 1007.8 |
| 20260510023229 | 14 | 99 | 19.3 | 22.5 | 0.00 | 0.00 | 0.00 | 69 | 1007.9 |
| 20260510022729 | 14 | 99 | 19.3 | 29.0 | 0.00 | 0.00 | 0.00 | 70 | 1008.0 |
| 20260510022230 | 13 | 107 | 19.3 | 29.0 | 0.00 | 0.00 | 0.00 | 71 | 1008.0 |
| 20260510021728 | 13 | 109 | 17.7 | 24.1 | 0.00 | 0.00 | 0.00 | 72 | 1008.0 |
| 20260510021228 | 13 | 111 | 17.7 | 20.9 | 0.00 | 0.00 | 0.00 | 74 | 1007.9 |
| 20260510020729 | 13 | 109 | 16.1 | 22.5 | 0.00 | 0.00 | 0.00 | 73 | 1008.0 |
| 20260510020230 | 13 | 104 | 16.1 | 22.5 | 0.00 | 0.00 | 0.00 | 73 | 1008.1 |
| 20260510015228 | 13 | 98 | 19.3 | 22.5 | 0.00 | 0.00 | 0.00 | 76 | 1008.2 |
| 20260510014729 | 14 | 92 | 19.3 | 22.5 | 0.00 | 0.00 | 0.00 | 76 | 1008.2 |
| 20260510014228 | 14 | 108 | 19.3 | 24.1 | 0.00 | 0.00 | 0.00 | 75 | 1008.2 |
| 20260510013726 | 14 | 106 | 20.9 | 24.1 | 0.00 | 0.00 | 0.00 | 73 | 1008.3 |
| 20260510012219 | 14 | 95 | 22.5 | 29.0 | 0.00 | 0.00 | 0.00 | 75 | 1008.4 |
| 20260510011212 | 14 | 99 | 19.3 | 22.5 | 0.00 | 0.00 | 0.00 | 79 | 1008.4 |
| 20260510010713 | 14 | 103 | 17.7 | 20.9 | 0.00 | 0.00 | 0.00 | 77 | 1008.5 |
| 20260510005708 | 13 | 128 | 19.3 | 22.5 | 0.00 | 0.00 | 0.00 | 76 | 1008.5 |
| 20260510004705 | 13 | 122 | 11.3 | 20.9 | 0.00 | 0.00 | 0.00 | 76 | 1008.5 |
| 20260510004205 | 13 | 143 | 8.0 | 14.5 | 0.00 | 0.00 | 0.00 | 76 | 1008.5 |
| 20260510003703 | 13 | 171 | 8.0 | 12.9 | 0.00 | 0.00 | 0.00 | 76 | 1008.6 |
| 20260510002704 | 13 | 159 | 9.7 | 14.5 | 0.00 | 0.00 | 0.00 | 75 | 1008.7 |
| 20260510002203 | 13 | 163 | 8.0 | 14.5 | 0.00 | 0.00 | 0.00 | 75 | 1008.7 |
| 20260510001702 | 13 | 128 | 6.4 | 12.9 | 0.00 | 0.00 | 0.00 | 75 | 1008.8 |
| 20260510001202 | 14 | 195 | 6.4 | 8.0 | 0.00 | 0.00 | 0.00 | 74 | 1008.9 |
| 20260510000700 | 14 | 194 | 6.4 | 8.0 | 0.00 | 0.00 | 0.00 | 74 | 1008.9 |
| 20260510000200 | 14 | 195 | 6.4 | 9.7 | 0.00 | 0.00 | 0.00 | 73 | 1009.0 |
| 20260509235701 | 14 | 174 | 4.8 | 9.7 | 0.00 | 0.00 | 0.00 | 73 | 1009.1 |
| 20260509235218 | 14 | 145 | 3.2 | 8.0 | 0.00 | 0.00 | 0.00 | 72 | 1009.1 |
| 20260509234701 | 15 | 158 | 1.6 | 6.4 | 0.00 | 0.00 | 0.00 | 72 | 1009.2 |
| 20260509234201 | 15 | 181 | 3.2 | 4.8 | 0.00 | 0.00 | 0.00 | 72 | 1009.2 |
| 20260509232202 | 15 | 145 | 8.0 | 17.7 | 0.00 | 0.00 | 0.00 | 73 | 1009.4 |
| 20260509231702 | 15 | 103 | 1.6 | 8.0 | 0.00 | 0.00 | 0.00 | 72 | 1009.4 |
| 20260509231203 | 15 | 115 | 1.6 | 3.2 | 0.00 | 0.00 | 0.00 | 72 | 1009.4 |
| 20260509230201 | 15 | 84 | 1.6 | 3.2 | 0.00 | 0.00 | 0.00 | 73 | 1009.3 |
| 20260509225703 | 15 | 84 | 1.6 | 3.2 | 0.00 | 0.00 | 0.00 | 73 | 1009.4 |
| 20260509225204 | 15 | 110 | 1.6 | 6.4 | 0.00 | 0.00 | 0.00 | 72 | 1009.4 |
| 20260509224702 | 15 | 110 | 3.2 | 6.4 | 0.00 | 0.00 | 0.00 | 72 | 1009.5 |
| 20260509223204 | 15 | 113 | 1.6 | 6.4 | 0.00 | 0.00 | 0.00 | 79 | 1009.5 |
| 20260509222702 | 15 | 113 | 3.2 | 6.4 | 0.00 | 0.00 | 0.00 | 76 | 1009.5 |
| 20260509221702 | 15 | 113 | 6.4 | 8.0 | 0.00 | 0.00 | 0.00 | 76 | 1009.7 |
| 20260509221218 | 15 | 113 | 6.4 | 8.0 | 0.00 | 0.00 | 0.00 | 76 | 1009.5 |
| 20260509220703 | 15 | 111 | 8.0 | 9.7 | 0.00 | 0.00 | 0.00 | 76 | 1009.5 |
| 20260509220517 | 15 | 101 | 8.0 | 11.3 | 0.00 | 0.00 | 0.00 | 76 | 1009.7 |
| 20260509215715 | 15 | 106 | 9.7 | 11.3 | 0.00 | 0.00 | 0.00 | 76 | 1009.7 |
| 20260509215202 | 15 | 101 | 9.7 | 12.9 | 0.00 | 0.00 | 0.00 | 76 | 1009.7 |
| 20260509214702 | 15 | 107 | 8.0 | 12.9 | 0.00 | 0.00 | 0.00 | 76 | 1009.9 |
| 20260509214202 | 15 | 118 | 6.4 | 9.7 | 0.00 | 0.00 | 0.00 | 74 | 1009.9 |
| 20260509213700 | 16 | 132 | 3.2 | 8.0 | 0.00 | 0.00 | 0.00 | 71 | 1010.0 |
| 20260509213202 | 16 | 97 | 4.8 | 8.0 | 0.00 | 0.00 | 0.00 | 71 | 1010.0 |
| 20260509212701 | 16 | 97 | 6.4 | 8.0 | 0.00 | 0.00 | 0.00 | 70 | 1010.1 |
| 20260509212156 | 16 | 129 | 4.8 | 8.0 | 0.00 | 0.00 | 0.00 | 71 | 1010.2 |
| 20260509211653 | 16 | 148 | 4.8 | 9.7 | 0.00 | 0.00 | 0.00 | 70 | 1010.3 |
| 20260509210629 | 16 | 118 | 4.8 | 9.7 | 0.00 | 0.00 | 0.00 | 67 | 1010.3 |
| 20260509210131 | 16 | 132 | 3.2 | 6.4 | 0.00 | 0.00 | 0.00 | 65 | 1010.4 |
| 20260509205629 | 17 | 114 | 3.2 | 6.4 | 0.00 | 0.00 | 0.00 | 63 | 1010.4 |
| 20260509205129 | 17 | 114 | 1.6 | 6.4 | 0.00 | 0.00 | 0.00 | 60 | 1010.5 |
| 20260509204629 | 17 | 57 | 1.6 | 3.2 | 0.00 | 0.00 | 0.00 | 59 | 1010.5 |
| 20260509203631 | 18 | 38 | 1.6 | 4.8 | 0.00 | 0.00 | 0.00 | 56 | 1010.6 |
| 20260509203132 | 18 | 278 | 1.6 | 4.8 | 0.00 | 0.00 | 0.00 | 55 | 1010.6 |
| 20260509202629 | 18 | 278 | 1.6 | 4.8 | 0.00 | 0.00 | 0.00 | 54 | 1010.6 |
| 20260509202129 | 18 | 281 | 3.2 | 6.4 | 0.00 | 0.00 | 0.00 | 53 | 1010.7 |
| 20260509201615 | 18 | 282 | 3.2 | 6.4 | 0.00 | 0.00 | 0.00 | 52 | 1010.6 |
| 20260509200606 | 18 | 282 | 4.8 | 9.7 | 0.00 | 0.00 | 0.00 | 51 | 1010.6 |
| 20260509200105 | 18 | 295 | 6.4 | 11.3 | 0.00 | 0.00 | 0.00 | 50 | 1010.6 |
| 20260509195605 | 18 | 278 | 8.0 | 11.3 | 0.00 | 0.00 | 0.00 | 51 | 1010.7 |
| 20260509195103 | 18 | 269 | 6.4 | 9.7 | 0.00 | 0.00 | 0.00 | 51 | 1010.7 |
| 20260509194605 | 18 | 291 | 6.4 | 9.7 | 0.00 | 0.00 | 0.00 | 51 | 1010.7 |
| 20260509194101 | 19 | 278 | 4.8 | 8.0 | 0.00 | 0.00 | 0.00 | 50 | 1010.7 |
| 20260509193601 | 19 | 286 | 4.8 | 8.0 | 0.00 | 0.00 | 0.00 | 50 | 1010.7 |
| 20260509193101 | 19 | 278 | 3.2 | 8.0 | 0.00 | 0.00 | 0.00 | 50 | 1010.6 |
| 20260509192603 | 19 | 298 | 3.2 | 6.4 | 0.00 | 0.00 | 0.00 | 49 | 1010.8 |
| 20260509192104 | 20 | 308 | 1.6 | 6.4 | 0.00 | 0.00 | 0.00 | 48 | 1010.8 |
| 20260509191600 | 20 | 13 | 1.6 | 4.8 | 0.00 | 0.00 | 0.00 | 47 | 1010.8 |
| 20260509191103 | 20 | 13 | 1.6 | 4.8 | 0.00 | 0.00 | 0.00 | 47 | 1010.8 |
| 20260509190604 | 20 | 309 | 1.6 | 3.2 | 0.00 | 0.00 | 0.00 | 47 | 1010.8 |
| 20260509184602 | 20 | 303 | 8.0 | 14.5 | 0.00 | 0.00 | 0.00 | 47 | 1010.9 |
| 20260509184132 | 20 | 298 | 9.7 | 14.5 | 0.00 | 0.00 | 0.00 | 46 | 1010.8 |
| 20260509183600 | 20 | 264 | 6.4 | 12.9 | 0.00 | 0.00 | 0.00 | 47 | 1010.8 |
| 20260509183103 | 20 | 274 | 4.8 | 11.3 | 0.00 | 0.00 | 0.00 | 47 | 1010.8 |
| 20260509182601 | 20 | 218 | 6.4 | 12.9 | 0.00 | 0.00 | 0.00 | 46 | 1010.8 |
| 20260509181602 | 20 | 254 | 6.4 | 12.9 | 0.00 | 0.00 | 0.00 | 46 | 1010.9 |
| 20260509181103 | 20 | 214 | 4.8 | 14.5 | 0.00 | 0.00 | 0.00 | 45 | 1010.8 |
| 20260509180602 | 21 | 32 | 4.8 | 14.5 | 0.00 | 0.00 | 0.00 | 47 | 1010.8 |
| 20260509175602 | 21 | 308 | 11.3 | 20.9 | 0.00 | 0.00 | 0.00 | 45 | 1010.8 |
| 20260509174602 | 21 | 355 | 11.3 | 22.5 | 0.00 | 0.00 | 0.00 | 44 | 1010.7 |
| 20260509173603 | 21 | 350 | 8.0 | 16.1 | 0.00 | 0.00 | 0.00 | 43 | 1010.7 |
| 20260509173101 | 21 | 335 | 9.7 | 20.9 | 0.00 | 0.00 | 0.00 | 42 | 1010.7 |
| 20260509172600 | 21 | 9 | 12.9 | 22.5 | 0.00 | 0.00 | 0.00 | 42 | 1010.7 |
| 20260509172100 | 21 | 11 | 16.1 | 29.0 | 0.00 | 0.00 | 0.00 | 41 | 1010.7 |
| 20260509171604 | 21 | 9 | 12.9 | 29.0 | 0.00 | 0.00 | 0.00 | 41 | 1010.6 |
| 20260509171103 | 22 | 335 | 9.7 | 17.7 | 0.00 | 0.00 | 0.00 | 42 | 1010.8 |
| 20260509165603 | 22 | 334 | 9.7 | 17.7 | 0.00 | 0.00 | 0.00 | 42 | 1010.8 |
| 20260509165103 | 22 | 355 | 8.0 | 14.5 | 0.00 | 0.00 | 0.00 | 41 | 1010.9 |
| 20260509164602 | 22 | 355 | 8.0 | 12.9 | 0.00 | 0.00 | 0.00 | 40 | 1010.8 |
| 20260509164103 | 22 | 350 | 8.0 | 16.1 | 0.00 | 0.00 | 0.00 | 40 | 1010.8 |
| 20260509163103 | 22 | 0 | 6.4 | 14.5 | 0.00 | 0.00 | 0.00 | 38 | 1011.0 |
| 20260509162602 | 22 | 7 | 4.8 | 9.7 | 0.00 | 0.00 | 0.00 | 38 | 1011.1 |
| 20260509161604 | 22 | 297 | 4.8 | 11.3 | 0.00 | 0.00 | 0.00 | 36 | 1011.2 |
| 20260509161104 | 22 | 17 | 6.4 | 12.9 | 0.00 | 0.00 | 0.00 | 36 | 1011.2 |
| 20260509160602 | 22 | 308 | 8.0 | 12.9 | 0.00 | 0.00 | 0.00 | 36 | 1011.3 |
| 20260509155602 | 22 | 27 | 8.0 | 16.1 | 0.00 | 0.00 | 0.00 | 37 | 1011.6 |
| 20260509155104 | 22 | 32 | 9.7 | 16.1 | 0.00 | 0.00 | 0.00 | 37 | 1011.4 |
| 20260509154102 | 22 | 331 | 4.8 | 16.1 | 0.00 | 0.00 | 0.00 | 36 | 1011.3 |
| 20260509153103 | 22 | 350 | 6.4 | 11.3 | 0.00 | 0.00 | 0.00 | 36 | 1011.6 |
| 20260509152103 | 22 | 350 | 8.0 | 14.5 | 0.00 | 0.00 | 0.00 | 35 | 1011.7 |
| 20260509151603 | 22 | 3 | 9.7 | 16.1 | 0.00 | 0.00 | 0.00 | 35 | 1011.7 |
| 20260509151104 | 22 | 296 | 12.9 | 24.1 | 0.00 | 0.00 | 0.00 | 34 | 1011.7 |
| 20260509150602 | 22 | 314 | 11.3 | 24.1 | 0.00 | 0.00 | 0.00 | 35 | 1011.7 |
| 20260509145603 | 22 | 272 | 9.7 | 16.1 | 0.00 | 0.00 | 0.00 | 34 | 1011.7 |
| 20260509145103 | 22 | 271 | 9.7 | 19.3 | 0.00 | 0.00 | 0.00 | 34 | 1011.7 |
| 20260509144601 | 22 | 245 | 6.4 | 19.3 | 0.00 | 0.00 | 0.00 | 35 | 1011.8 |
| 20260509143601 | 22 | 281 | 6.4 | 14.5 | 0.00 | 0.00 | 0.00 | 36 | 1011.8 |
| 20260509143102 | 22 | 329 | 6.4 | 14.5 | 0.00 | 0.00 | 0.00 | 35 | 1011.8 |
| 20260509142602 | 22 | 3 | 6.4 | 14.5 | 0.00 | 0.00 | 0.00 | 37 | 1011.8 |
| 20260509142102 | 22 | 333 | 8.0 | 16.1 | 0.00 | 0.00 | 0.00 | 35 | 1011.9 |
| 20260509141601 | 22 | 335 | 9.7 | 16.1 | 0.00 | 0.00 | 0.00 | 35 | 1011.9 |
| 20260509141101 | 22 | 269 | 8.0 | 16.1 | 0.00 | 0.00 | 0.00 | 35 | 1011.8 |
| 20260509140602 | 22 | 303 | 4.8 | 12.9 | 0.00 | 0.00 | 0.00 | 35 | 1011.9 |
| 20260509134603 | 22 | 293 | 6.4 | 19.3 | 0.00 | 0.00 | 0.00 | 35 | 1012.3 |
| 20260509134101 | 22 | 299 | 3.2 | 12.9 | 0.00 | 0.00 | 0.00 | 37 | 1012.4 |
| 20260509133104 | 22 | 269 | 4.8 | 9.7 | 0.00 | 0.00 | 0.00 | 38 | 1012.6 |
| 20260509132602 | 22 | 8 | 6.4 | 12.9 | 0.00 | 0.00 | 0.00 | 38 | 1012.6 |
| 20260509132118 | 22 | 34 | 8.0 | 14.5 | 0.00 | 0.00 | 0.00 | 39 | 1012.6 |
| 20260509131615 | 22 | 18 | 8.0 | 14.5 | 0.00 | 0.00 | 0.00 | 37 | 1012.7 |
| 20260509131119 | 21 | 27 | 6.4 | 12.9 | 0.00 | 0.00 | 0.00 | 38 | 1012.7 |
| 20260509125600 | 21 | 53 | 8.0 | 12.9 | 0.00 | 0.00 | 0.00 | 41 | 1012.8 |
| 20260509125103 | 22 | 76 | 8.0 | 12.9 | 0.00 | 0.00 | 0.00 | 40 | 1012.9 |
| 20260509124600 | 22 | 124 | 6.4 | 11.3 | 0.00 | 0.00 | 0.00 | 38 | 1013.0 |
| 20260509124101 | 22 | 144 | 6.4 | 9.7 | 0.00 | 0.00 | 0.00 | 38 | 1013.1 |
| 20260509123601 | 22 | 159 | 8.0 | 12.9 | 0.00 | 0.00 | 0.00 | 39 | 1013.1 |
| 20260509123102 | 21 | 139 | 8.0 | 12.9 | 0.00 | 0.00 | 0.00 | 44 | 1013.0 |
| 20260509122601 | 21 | 171 | 6.4 | 12.9 | 0.00 | 0.00 | 0.00 | 42 | 1012.9 |
| 20260509122058 | 20 | 161 | 4.8 | 9.7 | 0.00 | 0.00 | 0.00 | 47 | 1012.9 |
| 20260509121559 | 20 | 163 | 3.2 | 8.0 | 0.00 | 0.00 | 0.00 | 43 | 1012.8 |
| 20260509121058 | 20 | 140 | 6.4 | 11.3 | 0.00 | 0.00 | 0.00 | 50 | 1012.8 |
| 20260509120554 | 20 | 149 | 8.0 | 12.9 | 0.00 | 0.00 | 0.00 | 57 | 1012.7 |
| 20260509115053 | 18 | 37 | 4.8 | 9.7 | 0.00 | 0.00 | 0.00 | 58 | 1012.8 |
| 20260509114538 | 18 | 62 | 8.0 | 17.7 | 0.00 | 0.00 | 0.00 | 59 | 1012.8 |
| 20260509114036 | 18 | 32 | 8.0 | 17.7 | 0.00 | 0.00 | 0.00 | 57 | 1013.0 |
| 20260509113534 | 20 | 99 | 3.2 | 14.5 | 0.00 | 0.00 | 0.00 | 54 | 1013.2 |
| 20260509113043 | 19 | 130 | 3.2 | 9.7 | 0.00 | 0.00 | 0.00 | 57 | 1013.1 |
| 20260509112531 | 18 | 138 | 6.4 | 9.7 | 0.00 | 0.00 | 0.00 | 59 | 1013.1 |
| 20260509112030 | 18 | 160 | 8.0 | 12.9 | 0.00 | 0.00 | 0.00 | 61 | 1013.2 |
| 20260509111530 | 18 | 106 | 9.7 | 14.5 | 0.00 | 0.00 | 0.00 | 65 | 1013.2 |
| 20260509110529 | 18 | 126 | 6.4 | 14.5 | 0.00 | 0.00 | 0.00 | 60 | 1013.3 |
| 20260509110029 | 17 | 159 | 6.4 | 11.3 | 0.00 | 0.00 | 0.00 | 66 | 1013.3 |
| 20260509105530 | 17 | 148 | 6.4 | 11.3 | 0.00 | 0.00 | 0.00 | 71 | 1013.2 |
| 20260509105104 | 16 | 143 | 6.4 | 9.7 | 0.00 | 0.00 | 0.00 | 69 | 1013.3 |
| 20260509104034 | 16 | 113 | 8.0 | 12.9 | 0.00 | 0.00 | 0.00 | 74 | 1013.5 |
| 20260509103534 | 16 | 91 | 9.7 | 11.3 | 0.00 | 0.00 | 0.00 | 60 | 1013.7 |
| 20260509103028 | 16 | 143 | 9.7 | 12.9 | 0.00 | 0.00 | 0.00 | 64 | 1013.8 |
| 20260509102528 | 16 | 132 | 9.7 | 12.9 | 0.00 | 0.00 | 0.00 | 65 | 1013.7 |